メインページ
METAR-TAF:

METAR-TAF

空港 :

アンマン, ヨルダン

緯度: 31-59N, 経度: 035-59E, 海抜: 767m

現時点の気象観測

当レポートは39分前の20:00(UTC)に作成
西/北西の風 8kt
気温 23°C
湿度 38%
気圧 1012 hPa
視程: 5000m
煙霧

METAR: OJAM 172000Z 29008KT 5000 HZ NSC 23/08 Q1012 NOSIG

時間: 23:39 (20:39 UTC)

予報

当レポートは4時間25分前の16:14(UTC)に作成
予報は17日の 18時(UTC)から 18日の 24時(UTC)まで有効
西の風 14kt
視程: 5000m
煙霧
17日の 20時(UTC)から 17日の 22時(UTC)まで徐々に
西/北西の風 8kt

TAF: OJAM 171614Z 1718/1824 27014KT 5000 HZ NSC BECMG 1720/1722 29008KT

4,000以上の空港の気象観測と天気予報(METAR報とTAF報)

利用可能な観測所は地図上に黄色い丸と赤い丸で示す。

丸の上にカーソルを重ねると観測所名を参照できる。

次にクリックすると気象観測と天気予報を参照できる。

マップの切り替え:黒色「×」印の緑ボタンをクリックして拡大、「-」印の緑ボタンをクリックして縮小、緑色の三角印をクリックして隣りの地図に切り替え


METAR-TAF: